Time;durP1;ratioP1;P1;durP2;ratioP2;P2;SDS_P1;SDS_P2;PMS_P1;PMS_P2;Temp;Humidity;BMP_temperature;BMP_pressure;BME280_temperature;BME280_humidity;BME280_pressure;Samples;Min_cycle;Max_cycle;Signal;HPM_P1;HPM_P2
2021/12/15 00:02:22;;;;;;;;;;;;;;;3.64;77.79;100711.28;5117999;28;19934;-66
2021/12/15 00:04:56;;;;;;;;;;;;;;;3.60;78.14;100711.06;5117919;28;19963;-65
2021/12/15 00:07:28;;;;;;;;;;;;;;;3.63;78.51;100714.59;5117971;28;19973;-65
2021/12/15 00:10:00;;;;;;;;;;;;;;;3.66;78.02;100712.19;5118268;28;20387;-67
2021/12/15 00:12:33;;;;;;;;;;;;;;;3.72;77.70;100716.66;5118417;28;20332;-66
2021/12/15 00:15:06;;;;;;;;;;;;;;;3.71;77.66;100708.22;5117798;28;19962;-66
2021/12/15 00:17:39;;;;;;;;;;;;;;;3.69;77.84;100709.81;5117747;28;19985;-65
2021/12/15 00:20:15;;;;;;;;;;;;;;;3.65;77.90;100702.88;5117054;28;20016;-65
2021/12/15 00:22:45;;;;;;;;;;;;;;;3.68;77.84;100703.03;5117436;28;20014;-66
2021/12/15 00:25:17;;;;;;;;;;;;;;;3.69;77.59;100703.91;5117788;28;19946;-66
2021/12/15 00:27:48;;;;;;;;;;;;;;;3.70;77.59;100709.00;5117851;28;20014;-67
2021/12/15 00:30:21;;;;;;;;;;;;;;;3.72;78.19;100709.91;5117840;28;19924;-67
2021/12/15 00:32:50;;;;;;;;;;;;;;;3.71;77.58;100702.28;5117673;28;20326;-66
2021/12/15 00:35:23;;;;;;;;;;;;;;;3.67;77.58;100705.50;5117694;28;20464;-66
2021/12/15 00:37:52;;;;;;;;;;;;;;;3.71;77.98;100703.16;5117650;28;19924;-65
2021/12/15 00:40:22;;;;;;;;;;;;;;;3.75;77.64;100706.66;5117249;28;19924;-65
2021/12/15 00:42:54;;;;;;;;;;;;;;;3.78;77.23;100700.09;5117499;28;20029;-66
2021/12/15 00:45:27;;;;;;;;;;;;;;;3.73;77.44;100691.47;5117196;28;19923;-67
2021/12/15 00:47:56;;;;;;;;;;;;;;;3.72;77.37;100704.88;5117152;28;19924;-66
2021/12/15 00:50:32;;;;;;;;;;;;;;;3.75;77.45;100696.56;5117505;28;20030;-66
2021/12/15 00:53:02;;;;;;;;;;;;;;;3.78;77.88;100705.16;5116899;28;19930;-67
2021/12/15 00:55:34;;;;;;;;;;;;;;;3.73;77.56;100714.19;5099160;28;20422;-66
2021/12/15 00:58:05;;;;;;;;;;;;;;;3.70;77.52;100711.53;5117233;28;20381;-66
2021/12/15 01:00:41;;;;;;;;;;;;;;;3.63;77.88;100714.59;5116927;28;19924;-66
2021/12/15 01:03:13;;;;;;;;;;;;;;;3.69;77.88;100717.38;5116837;28;19928;-66
2021/12/15 01:05:47;;;;;;;;;;;;;;;3.69;78.05;100719.91;5116920;28;19924;-67
2021/12/15 01:08:19;;;;;;;;;;;;;;;3.64;77.92;100726.41;5098832;28;20019;-66
2021/12/15 01:11:02;;;;;;;;;;;;;;;3.68;78.10;100728.28;5117046;28;19947;-66
2021/12/15 01:21:42;;;;;;;;;;;;;;;3.62;78.08;100740.63;5115667;28;19981;-66
2021/12/15 01:24:14;;;;;;;;;;;;;;;3.65;78.33;100743.28;5116305;28;19924;-66
2021/12/15 01:26:47;;;;;;;;;;;;;;;3.65;77.86;100748.31;5116445;28;20014;-65
2021/12/15 01:29:20;;;;;;;;;;;;;;;3.66;78.58;100745.00;5116376;28;19924;-66
2021/12/15 01:31:52;;;;;;;;;;;;;;;3.65;78.09;100745.78;5116727;28;19969;-65
2021/12/15 01:34:21;;;;;;;;;;;;;;;3.62;78.04;100743.16;5116204;28;19978;-66
2021/12/15 01:36:50;;;;;;;;;;;;;;;3.61;78.32;100740.53;5116486;28;20288;-66
2021/12/15 01:39:23;;;;;;;;;;;;;;;3.60;78.16;100733.78;5116793;28;19928;-67
2021/12/15 01:41:56;;;;;;;;;;;;;;;3.60;78.35;100732.09;5098065;28;20380;-65
2021/12/15 01:47:11;;;;;;;;;;;;;;;3.56;78.93;100727.72;5116284;28;20258;-67
2021/12/15 01:49:45;;;;;;;;;;;;;;;3.57;78.42;100729.47;5115994;28;20377;-67
2021/12/15 01:52:19;;;;;;;;;;;;;;;3.61;79.05;100731.31;5116259;28;20014;-65
2021/12/15 01:54:52;;;;;;;;;;;;;;;3.61;78.96;100721.22;5115883;28;19924;-66
2021/12/15 01:57:30;;;;;;;;;;;;;;;3.64;78.16;100731.47;5115795;28;20018;-67
2021/12/15 02:00:05;;;;;;;;;;;;;;;3.66;79.00;100732.41;5115801;28;19930;-65
2021/12/15 02:02:44;;;;;;;;;;;;;;;3.68;78.64;100725.75;5115781;28;19924;-65
2021/12/15 02:05:16;;;;;;;;;;;;;;;3.67;78.67;100726.53;5115037;28;19923;-65
2021/12/15 02:07:49;;;;;;;;;;;;;;;3.72;78.87;100725.06;5115572;28;19977;-66
2021/12/15 02:10:27;;;;;;;;;;;;;;;3.69;78.89;100724.97;5115869;28;20393;-67
2021/12/15 02:12:57;;;;;;;;;;;;;;;3.65;78.50;100718.03;5115543;28;19923;-65
2021/12/15 02:15:32;;;;;;;;;;;;;;;3.69;79.14;100712.34;5115413;28;19969;-67
2021/12/15 02:18:01;;;;;;;;;;;;;;;3.63;78.81;100709.53;5115384;28;20019;-65
2021/12/15 02:20:34;;;;;;;;;;;;;;;3.68;78.91;100708.06;5114500;28;20018;-66
2021/12/15 02:23:11;;;;;;;;;;;;;;;3.66;78.39;100711.31;5115701;28;20014;-67
2021/12/15 02:25:40;;;;;;;;;;;;;;;3.70;78.21;100716.56;5115186;28;19930;-67
2021/12/15 02:28:09;;;;;;;;;;;;;;;3.72;78.69;100727.59;5115443;28;19928;-66
2021/12/15 02:30:50;;;;;;;;;;;;;;;3.76;78.63;100718.50;5115114;28;19959;-66
2021/12/15 02:38:48;;;;;;;;;;;;;;;3.74;78.52;100713.38;5115006;28;19974;-66
2021/12/15 02:41:20;;;;;;;;;;;;;;;3.78;78.91;100714.38;5096864;28;19923;-67
2021/12/15 02:43:50;;;;;;;;;;;;;;;3.77;78.47;100708.47;5114961;28;19962;-67
2021/12/15 02:46:22;;;;;;;;;;;;;;;3.79;78.03;100714.44;5114805;28;19924;-67
2021/12/15 02:48:55;;;;;;;;;;;;;;;3.80;78.16;100716.19;5114785;28;19923;-65
2021/12/15 02:51:26;;;;;;;;;;;;;;;3.75;78.74;100715.09;5114856;28;20018;-65
2021/12/15 02:53:55;;;;;;;;;;;;;;;3.72;78.23;100714.97;5115075;28;19928;-67
2021/12/15 02:56:27;;;;;;;;;;;;;;;3.68;78.16;100718.16;5114681;28;19970;-65
2021/12/15 02:59:03;;;;;;;;;;;;;;;3.67;78.54;100716.44;5114660;28;19924;-65
2021/12/15 03:01:41;;;;;;;;;;;;;;;3.62;78.00;100722.97;5114486;28;19959;-65
2021/12/15 03:04:28;;;;;;;;;;;;;;;3.56;78.70;100721.81;5114575;28;19923;-65
2021/12/15 03:07:07;;;;;;;;;;;;;;;3.56;78.68;100722.69;5114534;28;19931;-66
2021/12/15 03:17:44;;;;;;;;;;;;;;;3.46;78.73;100717.16;5114792;28;19924;-66
2021/12/15 03:20:17;;;;;;;;;;;;;;;3.49;79.14;100725.75;5114404;28;19977;-67
2021/12/15 03:22:51;;;;;;;;;;;;;;;3.46;78.87;100725.59;5114323;28;19959;-66
2021/12/15 03:25:24;;;;;;;;;;;;;;;3.44;79.10;100724.66;5114372;28;19924;-66
2021/12/15 03:36:05;;;;;;;;;;;;;;;3.41;79.34;100727.03;5114624;28;19924;-65
2021/12/15 03:38:38;;;;;;;;;;;;;;;3.42;79.44;100730.44;5114217;28;19924;-66
2021/12/15 03:41:11;;;;;;;;;;;;;;;3.41;79.60;100739.66;5114253;28;19924;-67
2021/12/15 03:43:43;;;;;;;;;;;;;;;3.45;79.44;100751.66;5114581;28;20403;-67
2021/12/15 03:46:16;;;;;;;;;;;;;;;3.49;79.56;100745.94;5114154;28;19924;-65
2021/12/15 03:48:48;;;;;;;;;;;;;;;3.49;79.41;100745.94;5114113;28;19924;-66
2021/12/15 03:51:22;;;;;;;;;;;;;;;3.52;79.64;100756.16;5114771;28;20312;-65
2021/12/15 03:53:55;;;;;;;;;;;;;;;3.56;79.60;100755.50;5114140;28;19923;-67
2021/12/15 03:56:27;;;;;;;;;;;;;;;3.61;79.27;100759.09;5114107;28;19923;-67
2021/12/15 03:58:59;;;;;;;;;;;;;;;3.60;79.37;100749.78;5114022;28;19924;-66
2021/12/15 04:01:30;;;;;;;;;;;;;;;3.55;79.04;100751.22;5114422;28;19947;-67
2021/12/15 04:04:03;;;;;;;;;;;;;;;3.55;79.06;100746.19;5114059;28;19980;-67
2021/12/15 04:06:40;;;;;;;;;;;;;;;3.58;78.99;100736.22;5113972;28;19931;-65
2021/12/15 04:09:15;;;;;;;;;;;;;;;3.56;79.06;100749.56;5113923;28;19972;-66
2021/12/15 04:11:47;;;;;;;;;;;;;;;3.50;78.88;100751.84;5113967;28;20010;-66
2021/12/15 04:14:22;;;;;;;;;;;;;;;3.52;79.05;100756.16;5113920;28;19923;-65
2021/12/15 04:17:03;;;;;;;;;;;;;;;3.51;79.46;100748.50;5114237;28;20258;-67
2021/12/15 04:19:36;;;;;;;;;;;;;;;3.45;79.56;100758.34;5113880;28;19989;-66
2021/12/15 04:22:09;;;;;;;;;;;;;;;3.45;79.32;100759.22;5113035;28;19973;-66
2021/12/15 04:24:42;;;;;;;;;;;;;;;3.44;79.52;100761.66;5113873;28;20384;-65
2021/12/15 04:27:15;;;;;;;;;;;;;;;3.44;79.22;100771.75;5114376;28;19927;-66
2021/12/15 04:29:46;;;;;;;;;;;;;;;3.43;79.67;100786.03;5117483;28;19924;-66
2021/12/15 04:32:24;;;;;;;;;;;;;;;3.41;79.70;100777.50;5117857;28;20022;-66
2021/12/15 04:34:56;;;;;;;;;;;;;;;3.42;79.88;100786.81;5117654;28;19928;-67
2021/12/15 04:37:28;;;;;;;;;;;;;;;3.46;79.92;100781.09;5117340;28;19923;-65
2021/12/15 04:39:59;;;;;;;;;;;;;;;3.52;79.92;100785.56;5117265;28;19977;-66
2021/12/15 04:42:31;;;;;;;;;;;;;;;3.47;79.46;100787.03;5117329;28;20341;-67
2021/12/15 04:45:03;;;;;;;;;;;;;;;3.48;79.99;100793.81;5117207;28;20385;-66
2021/12/15 04:47:35;;;;;;;;;;;;;;;3.55;80.04;100776.47;5117252;28;20373;-65
2021/12/15 04:50:05;;;;;;;;;;;;;;;3.50;79.49;100775.44;5116913;28;20377;-66
2021/12/15 04:52:38;;;;;;;;;;;;;;;3.51;79.34;100779.66;5117120;28;19977;-67
2021/12/15 04:55:11;;;;;;;;;;;;;;;3.49;80.16;100788.81;5117017;28;19924;-67
2021/12/15 04:57:43;;;;;;;;;;;;;;;3.54;79.93;100789.91;5116928;28;19923;-67
2021/12/15 05:00:15;;;;;;;;;;;;;;;3.56;80.19;100800.91;5117095;28;19931;-66
2021/12/15 05:02:47;;;;;;;;;;;;;;;3.60;80.26;100792.69;5117167;28;19960;-67
2021/12/15 05:05:20;;;;;;;;;;;;;;;3.58;79.91;100801.84;5116810;28;19924;-67
2021/12/15 05:07:52;;;;;;;;;;;;;;;3.61;79.68;100796.94;5116703;28;19969;-66
2021/12/15 05:10:23;;;;;;;;;;;;;;;3.66;79.53;100804.72;5117045;28;19923;-66
2021/12/15 05:12:55;;;;;;;;;;;;;;;3.64;79.87;100804.66;5116723;28;19924;-67
2021/12/15 05:15:28;;;;;;;;;;;;;;;3.65;80.00;100808.03;5116732;28;19927;-67
2021/12/15 05:18:00;;;;;;;;;;;;;;;3.66;79.72;100813.16;5117268;28;20332;-66
2021/12/15 05:20:29;;;;;;;;;;;;;;;3.66;80.06;100810.63;5116791;28;19923;-65
2021/12/15 05:23:02;;;;;;;;;;;;;;;3.69;79.11;100814.97;5117228;28;19923;-65
2021/12/15 05:25:35;;;;;;;;;;;;;;;3.68;79.21;100818.28;5116508;28;19924;-67
2021/12/15 05:28:05;;;;;;;;;;;;;;;3.69;79.64;100818.34;5117249;28;19931;-65
2021/12/15 05:30:33;;;;;;;;;;;;;;;3.66;79.31;100823.25;5116599;28;19928;-66
2021/12/15 05:33:05;;;;;;;;;;;;;;;3.69;79.51;100820.88;5116625;28;19946;-68
2021/12/15 05:35:37;;;;;;;;;;;;;;;3.70;79.17;100820.06;5116293;28;20301;-65
2021/12/15 05:38:08;;;;;;;;;;;;;;;3.67;79.81;100817.41;5116530;28;20381;-65
2021/12/15 05:40:42;;;;;;;;;;;;;;;3.61;79.83;100814.63;5116189;28;19969;-65
2021/12/15 05:43:11;;;;;;;;;;;;;;;3.59;79.44;100818.72;5116143;28;19924;-66
2021/12/15 05:45:45;;;;;;;;;;;;;;;3.64;79.96;100824.00;5116362;28;19933;-65
2021/12/15 05:48:14;;;;;;;;;;;;;;;3.63;79.54;100823.13;5115976;28;19934;-66
2021/12/15 05:50:47;;;;;;;;;;;;;;;3.45;79.24;100818.91;5116156;28;19963;-67
2021/12/15 05:53:16;;;;;;;;;;;;;;;3.47;79.78;100818.19;5115873;28;19931;-65
2021/12/15 05:55:50;;;;;;;;;;;;;;;3.49;79.60;100826.69;5116193;28;20022;-67
2021/12/15 05:58:19;;;;;;;;;;;;;;;3.56;80.14;100827.81;5116106;28;19989;-66
2021/12/15 06:00:51;;;;;;;;;;;;;;;3.61;79.53;100827.25;5115724;28;20022;-67
2021/12/15 06:03:20;;;;;;;;;;;;;;;3.67;79.71;100831.69;5116088;28;20304;-66
2021/12/15 06:05:49;;;;;;;;;;;;;;;3.67;79.54;100832.53;5115545;28;19924;-67
2021/12/15 06:08:18;;;;;;;;;;;;;;;3.63;79.33;100840.78;5115793;28;19927;-67
2021/12/15 06:10:52;;;;;;;;;;;;;;;3.63;79.81;100834.88;5115503;28;19923;-65
2021/12/15 06:13:23;;;;;;;;;;;;;;;3.61;79.22;100834.81;5115545;28;20014;-66
2021/12/15 06:15:59;;;;;;;;;;;;;;;3.61;79.40;100837.34;5115820;28;19932;-65
2021/12/15 06:18:28;;;;;;;;;;;;;;;3.65;79.27;100844.25;5116027;28;19924;-66
2021/12/15 06:21:00;;;;;;;;;;;;;;;3.68;79.23;100849.44;5114777;28;19924;-66
2021/12/15 06:23:30;;;;;;;;;;;;;;;3.72;79.07;100851.28;5115248;28;19924;-65
2021/12/15 06:26:06;;;;;;;;;;;;;;;3.66;79.18;100845.97;5115852;28;19923;-66
2021/12/15 06:28:39;;;;;;;;;;;;;;;3.63;79.34;100855.94;5115453;28;20331;-65
2021/12/15 06:31:10;;;;;;;;;;;;;;;3.61;79.84;100857.53;5115465;28;20300;-66
2021/12/15 06:33:42;;;;;;;;;;;;;;;3.63;79.65;100863.50;5115753;28;19924;-67
2021/12/15 06:36:20;;;;;;;;;;;;;;;3.64;79.67;100861.84;5115347;28;19924;-65
2021/12/15 06:38:53;;;;;;;;;;;;;;;3.55;79.32;100872.38;5115380;28;20384;-67
2021/12/15 06:41:27;;;;;;;;;;;;;;;3.54;79.31;100873.19;5114990;28;19924;-67
2021/12/15 06:43:59;;;;;;;;;;;;;;;3.57;79.38;100870.81;5115217;28;20373;-67
2021/12/15 07:00:22;;;;;;;;;;;;;;;3.62;80.05;100897.13;5106468;28;19923;-65
2021/12/15 07:02:54;;;;;;;;;;;;;;;3.68;80.18;100901.56;5114580;28;19924;-66
2021/12/15 07:05:26;;;;;;;;;;;;;;;3.72;79.82;100901.78;5114642;28;19947;-67
2021/12/15 07:07:58;;;;;;;;;;;;;;;3.79;79.77;100902.94;5114591;28;20023;-66
2021/12/15 07:10:29;;;;;;;;;;;;;;;3.74;79.41;100910.28;5114799;28;20293;-67
2021/12/15 07:13:02;;;;;;;;;;;;;;;3.75;79.44;100916.19;5115208;28;20027;-65
2021/12/15 07:15:36;;;;;;;;;;;;;;;3.78;79.42;100917.22;5114532;28;20012;-66
2021/12/15 07:18:11;;;;;;;;;;;;;;;3.82;79.72;100923.25;5114456;28;19957;-66
2021/12/15 07:20:47;;;;;;;;;;;;;;;3.81;79.30;100927.47;5114306;28;19924;-66
2021/12/15 07:23:17;;;;;;;;;;;;;;;3.86;79.46;100926.00;5074142;28;19964;-66
2021/12/15 07:25:50;;;;;;;;;;;;;;;3.89;79.77;100925.28;5073833;28;20030;-68
2021/12/15 07:28:21;;;;;;;;;;;;;;;3.89;79.30;100925.28;5074038;28;20378;-67
2021/12/15 07:30:54;;;;;;;;;;;;;;;3.92;79.26;100930.47;5073870;28;19978;-66
2021/12/15 07:33:23;;;;;;;;;;;;;;;3.97;79.23;100940.00;5074094;28;19932;-67
2021/12/15 07:35:56;;;;;;;;;;;;;;;4.07;79.14;100937.09;5073742;28;19924;-66
2021/12/15 07:38:25;;;;;;;;;;;;;;;4.06;79.19;100940.41;5073985;28;19950;-66
2021/12/15 07:40:57;;;;;;;;;;;;;;;4.08;79.17;100953.09;5073892;28;19924;-66
2021/12/15 07:43:27;;;;;;;;;;;;;;;4.05;78.93;100955.50;5073773;28;19964;-68
2021/12/15 07:46:01;;;;;;;;;;;;;;;4.06;78.76;100955.56;5073961;28;19978;-67
2021/12/15 07:48:35;;;;;;;;;;;;;;;4.04;79.06;100952.09;5073764;28;19924;-66
2021/12/15 07:51:10;;;;;;;;;;;;;;;4.02;78.89;100953.69;5073907;28;19986;-65
2021/12/15 07:53:39;;;;;;;;;;;;;;;4.05;79.24;100952.97;5073586;28;19924;-66
2021/12/15 07:56:12;;;;;;;;;;;;;;;4.10;78.29;100953.19;5073517;28;19961;-66
2021/12/15 07:58:45;;;;;;;;;;;;;;;4.11;79.03;100962.47;5073471;28;19952;-67
2021/12/15 08:01:19;;;;;;;;;;;;;;;4.14;79.02;100968.53;5073864;28;19924;-67
2021/12/15 08:03:54;;;;;;;;;;;;;;;4.19;79.29;100966.22;5076723;28;19925;-66
2021/12/15 08:06:27;;;;;;;;;;;;;;;4.17;78.80;100966.16;5077301;28;19924;-65
2021/12/15 08:08:56;;;;;;;;;;;;;;;4.21;78.66;100972.22;5077137;28;19938;-67
2021/12/15 08:11:25;;;;;;;;;;;;;;;4.25;78.83;100972.41;5077529;28;19924;-65
2021/12/15 08:13:58;;;;;;;;;;;;;;;4.17;78.53;100971.22;5077167;28;20427;-65
2021/12/15 08:16:27;;;;;;;;;;;;;;;4.13;78.57;100973.53;5076699;28;19924;-66
2021/12/15 08:18:56;;;;;;;;;;;;;;;4.18;78.81;100972.06;5077259;28;19932;-66
2021/12/15 08:21:28;;;;;;;;;;;;;;;4.22;78.75;100976.47;5088321;28;19928;-66
2021/12/15 08:23:57;;;;;;;;;;;;;;;4.27;78.73;100980.06;5108102;28;20289;-66
2021/12/15 08:26:26;;;;;;;;;;;;;;;4.16;78.69;100986.28;5105892;28;19930;-66
2021/12/15 08:28:55;;;;;;;;;;;;;;;3.98;78.30;100987.16;5106072;28;19924;-66
2021/12/15 08:31:26;;;;;;;;;;;;;;;3.95;78.90;100976.06;5110551;28;19924;-65
2021/12/15 08:33:55;;;;;;;;;;;;;;;3.89;79.05;100976.66;5117518;28;19924;-66
2021/12/15 08:36:24;;;;;;;;;;;;;;;3.85;78.84;100989.94;5117289;28;19982;-66
2021/12/15 08:38:53;;;;;;;;;;;;;;;3.88;79.17;100985.03;5117449;28;19928;-66
2021/12/15 08:41:23;;;;;;;;;;;;;;;3.92;78.76;100984.38;5117490;28;19924;-65
2021/12/15 08:43:52;;;;;;;;;;;;;;;4.05;79.19;100994.22;5117329;28;20319;-65
2021/12/15 08:46:23;;;;;;;;;;;;;;;4.08;79.28;100999.44;5117036;28;19928;-65
2021/12/15 08:48:55;;;;;;;;;;;;;;;4.14;78.82;100998.00;5117227;28;19924;-65
2021/12/15 08:51:26;;;;;;;;;;;;;;;3.97;79.08;101005.66;5116959;28;19931;-67
2021/12/15 08:53:56;;;;;;;;;;;;;;;3.93;79.57;101001.28;5116907;28;19923;-66
2021/12/15 08:56:25;;;;;;;;;;;;;;;3.97;79.50;100999.75;5117084;28;20368;-66
2021/12/15 08:58:55;;;;;;;;;;;;;;;3.93;79.77;101002.94;5117121;28;19924;-67
2021/12/15 09:01:24;;;;;;;;;;;;;;;3.78;80.03;101008.13;5116862;28;19977;-66
2021/12/15 09:03:55;;;;;;;;;;;;;;;3.86;80.23;101004.28;5116511;28;20018;-66
2021/12/15 09:06:24;;;;;;;;;;;;;;;3.87;79.83;101003.50;5116947;28;19924;-66
2021/12/15 09:08:53;;;;;;;;;;;;;;;3.78;79.77;101009.78;5116742;28;20014;-66
2021/12/15 09:11:26;;;;;;;;;;;;;;;3.71;79.87;101007.75;5116922;28;19924;-65
2021/12/15 09:13:56;;;;;;;;;;;;;;;3.67;80.05;101008.41;5116442;28;19924;-66
2021/12/15 09:16:27;;;;;;;;;;;;;;;3.58;80.42;101002.88;5116180;28;19932;-65
2021/12/15 09:18:58;;;;;;;;;;;;;;;3.61;81.04;100998.00;5116470;28;19963;-67
2021/12/15 09:21:28;;;;;;;;;;;;;;;3.63;80.57;101017.47;5116148;28;19928;-65
2021/12/15 09:23:57;;;;;;;;;;;;;;;3.58;81.00;101018.91;5116336;28;19923;-64
2021/12/15 09:26:26;;;;;;;;;;;;;;;3.62;80.50;101009.84;5116334;28;19924;-64
2021/12/15 09:28:56;;;;;;;;;;;;;;;3.83;81.24;101016.78;5115135;28;19923;-65
2021/12/15 09:31:25;;;;;;;;;;;;;;;4.00;80.84;101018.44;5114631;28;19955;-65
2021/12/15 09:33:55;;;;;;;;;;;;;;;3.99;80.53;101024.28;5116135;28;19924;-65
2021/12/15 09:36:30;;;;;;;;;;;;;;;3.88;80.58;101017.88;5112596;28;19924;-66
2021/12/15 09:39:06;;;;;;;;;;;;;;;3.63;80.56;101012.41;5111991;28;19924;-65
2021/12/15 09:41:36;;;;;;;;;;;;;;;3.51;80.58;101010.97;5115922;28;19931;-64
2021/12/15 09:44:12;;;;;;;;;;;;;;;3.41;81.57;101009.66;5116199;28;19924;-65
2021/12/15 09:47:07;;;;;;;;;;;;;;;3.47;81.71;101012.47;5116213;28;19927;-65
2021/12/15 10:02:00;;;;;;;;;;;;;;;4.06;81.29;101013.66;5115766;28;19927;-67
2021/12/15 10:03:34;;;;;;;;;;;;;;;4.13;81.34;101021.53;5116137;28;19931;-65
2021/12/15 10:06:22;;;;;;;;;;;;;;;4.25;81.25;101022.09;5115625;28;19993;-66
2021/12/15 10:11:54;;;;;;;;;;;;;;;4.66;80.86;101004.56;5115618;28;19930;-65
2021/12/15 10:19:51;;;;;;;;;;;;;;;4.99;80.40;100995.06;5115558;28;20331;-67
2021/12/15 10:22:29;;;;;;;;;;;;;;;5.03;80.30;101000.31;5115017;27;19931;-66
2021/12/15 10:25:01;;;;;;;;;;;;;;;5.21;80.16;101000.22;5114597;28;20019;-66
2021/12/15 10:27:36;;;;;;;;;;;;;;;5.39;79.63;101001.00;5115468;28;20362;-66
2021/12/15 10:30:09;;;;;;;;;;;;;;;5.50;79.53;101004.81;5115060;28;19923;-66
2021/12/15 10:32:39;;;;;;;;;;;;;;;5.54;79.28;101010.88;5115234;28;20014;-66
2021/12/15 10:35:10;;;;;;;;;;;;;;;5.53;78.87;101015.06;5114948;28;19924;-66
2021/12/15 10:37:39;;;;;;;;;;;;;;;5.48;78.89;101015.69;5115206;28;20381;-66
2021/12/15 10:40:11;;;;;;;;;;;;;;;5.63;78.75;101011.25;5115085;27;20349;-65
2021/12/15 10:42:40;;;;;;;;;;;;;;;5.46;78.24;101009.69;5114683;28;20381;-64
2021/12/15 10:45:11;;;;;;;;;;;;;;;4.96;78.20;101013.50;5115049;28;19981;-66
2021/12/15 10:47:45;;;;;;;;;;;;;;;4.83;78.94;101016.31;5115113;28;19931;-66
2021/12/15 10:50:17;;;;;;;;;;;;;;;5.02;78.49;101012.88;5114925;28;20364;-66
2021/12/15 10:52:54;;;;;;;;;;;;;;;5.22;78.63;101007.88;5114665;28;19930;-66
2021/12/15 10:55:32;;;;;;;;;;;;;;;5.28;78.03;101008.13;5114776;28;19934;-65
2021/12/15 10:58:25;;;;;;;;;;;;;;;5.27;78.24;101006.41;5115034;28;20365;-66
2021/12/15 11:00:55;;;;;;;;;;;;;;;5.13;78.34;100999.91;5114305;28;19923;-66
2021/12/15 11:03:32;;;;;;;;;;;;;;;5.11;77.99;100998.13;5114466;28;20010;-66
2021/12/15 11:06:27;;;;;;;;;;;;;;;5.27;78.06;101001.34;5115156;28;19924;-66
2021/12/15 11:09:07;;;;;;;;;;;;;;;5.41;78.25;101000.25;5114095;28;19930;-66
2021/12/15 11:11:58;;;;;;;;;;;;;;;5.58;77.78;100989.94;5114455;28;19923;-66
2021/12/15 11:14:33;;;;;;;;;;;;;;;5.70;77.69;100987.88;5114917;28;19924;-66
2021/12/15 11:17:08;;;;;;;;;;;;;;;5.80;77.38;100980.72;5115187;28;19928;-66
2021/12/15 11:19:57;;;;;;;;;;;;;;;6.04;77.61;100980.84;5114845;28;19923;-66
2021/12/15 11:22:33;;;;;;;;;;;;;;;6.14;77.35;100979.50;5105544;28;19923;-65
2021/12/15 11:25:03;;;;;;;;;;;;;;;6.17;77.03;100987.25;5114408;28;20006;-65
2021/12/15 11:27:34;;;;;;;;;;;;;;;6.18;76.35;100973.75;5115021;28;19971;-66
2021/12/15 11:30:10;;;;;;;;;;;;;;;6.29;76.63;100977.53;5114203;28;20014;-66
2021/12/15 11:32:44;;;;;;;;;;;;;;;6.33;76.31;100972.66;5114662;28;19923;-66
2021/12/15 11:35:18;;;;;;;;;;;;;;;6.48;76.35;100973.19;5114305;28;19969;-66
2021/12/15 11:37:52;;;;;;;;;;;;;;;6.59;75.95;100968.53;5117794;28;19930;-65
2021/12/15 11:40:31;;;;;;;;;;;;;;;6.58;75.79;100974.38;5118547;28;19924;-65
2021/12/15 11:43:01;;;;;;;;;;;;;;;6.57;75.44;100965.06;5118538;28;20381;-66
2021/12/15 11:45:31;;;;;;;;;;;;;;;6.49;75.69;100967.31;5118340;28;20393;-66
2021/12/15 11:48:18;;;;;;;;;;;;;;;6.27;75.71;100969.88;5118556;28;20391;-65
2021/12/15 11:50:53;;;;;;;;;;;;;;;6.29;75.70;100968.25;5118090;28;20297;-65
2021/12/15 11:53:35;;;;;;;;;;;;;;;6.24;75.75;100964.69;5118573;28;20010;-65
2021/12/15 11:56:16;;;;;;;;;;;;;;;6.21;74.98;100954.47;5118565;28;19935;-65
2021/12/15 11:58:46;;;;;;;;;;;;;;;6.38;75.31;100953.38;5118429;28;19923;-67
2021/12/15 12:01:29;;;;;;;;;;;;;;;6.54;75.88;100955.69;5118152;28;20007;-66
2021/12/15 12:04:09;;;;;;;;;;;;;;;6.58;75.30;100957.50;5118888;27;20272;-67
2021/12/15 12:06:43;;;;;;;;;;;;;;;6.53;75.17;100959.00;5118319;28;19924;-66
2021/12/15 12:09:12;;;;;;;;;;;;;;;6.66;75.29;100961.19;5118201;28;19923;-66
2021/12/15 12:11:44;;;;;;;;;;;;;;;6.94;75.02;100962.13;5117750;28;19930;-65
2021/12/15 12:14:26;;;;;;;;;;;;;;;7.16;74.75;100955.31;5118123;28;19927;-66
2021/12/15 12:16:55;;;;;;;;;;;;;;;7.43;73.91;100945.19;5117936;28;19977;-65
2021/12/15 12:19:24;;;;;;;;;;;;;;;7.49;73.50;100950.44;5117518;28;19969;-66
2021/12/15 12:21:55;;;;;;;;;;;;;;;7.38;73.14;100952.66;5116396;28;20373;-66
2021/12/15 12:24:33;;;;;;;;;;;;;;;7.24;72.85;100955.56;5117856;28;19927;-66
2021/12/15 12:27:08;;;;;;;;;;;;;;;7.15;72.75;100956.09;5117639;28;19973;-66
2021/12/15 12:29:40;;;;;;;;;;;;;;;7.11;72.54;100959.34;5117510;28;19977;-65
2021/12/15 12:32:09;;;;;;;;;;;;;;;7.07;73.15;100954.13;5117366;28;19927;-65
2021/12/15 12:34:39;;;;;;;;;;;;;;;7.06;72.87;100954.94;5117032;28;19924;-65
2021/12/15 12:37:11;;;;;;;;;;;;;;;7.15;72.79;100952.72;5117336;28;19923;-65
2021/12/15 12:39:40;;;;;;;;;;;;;;;7.08;72.93;100950.78;5117673;28;19963;-65
2021/12/15 12:42:09;;;;;;;;;;;;;;;6.85;73.28;100946.59;5117292;28;19934;-65
2021/12/15 12:44:45;;;;;;;;;;;;;;;6.67;72.95;100955.28;5117257;28;19930;-66
2021/12/15 12:47:29;;;;;;;;;;;;;;;6.46;73.46;100946.06;5117405;28;20373;-65
2021/12/15 12:50:16;;;;;;;;;;;;;;;6.28;73.97;100940.31;5115221;28;20282;-65
2021/12/15 13:01:17;;;;;;;;;;;;;;;6.31;74.53;100941.28;5116931;28;19923;-66
2021/12/15 13:03:50;;;;;;;;;;;;;;;6.31;74.92;100940.44;5116914;28;20415;-66
2021/12/15 13:06:23;;;;;;;;;;;;;;;6.16;nan;100942.41;5117560;28;19953;-65
2021/12/15 13:09:01;;;;;;;;;;;;;;;6.08;75.58;100932.00;5116782;28;20370;-65
2021/12/15 13:11:36;;;;;;;;;;;;;;;5.89;76.20;100942.25;5116645;28;19930;-66
2021/12/15 13:14:11;;;;;;;;;;;;;;;5.77;76.34;100945.13;5117375;28;19927;-65
2021/12/15 13:16:47;;;;;;;;;;;;;;;5.73;76.58;100937.38;5116599;28;20011;-66
2021/12/15 13:19:24;;;;;;;;;;;;;;;5.68;76.53;100943.91;5116595;28;19924;-66
2021/12/15 13:22:04;;;;;;;;;;;;;;;5.59;76.80;100938.50;5115732;28;19923;-66
2021/12/15 13:30:03;;;;;;;;;;;;;;;5.92;77.04;100944.91;5116643;28;19924;-65
2021/12/15 13:32:37;;;;;;;;;;;;;;;5.94;76.85;100943.28;5116608;28;20293;-66
2021/12/15 13:35:07;;;;;;;;;;;;;;;6.00;77.15;100940.97;5113266;28;20459;-65
2021/12/15 13:37:51;;;;;;;;;;;;;;;6.01;77.06;100935.09;5108476;28;19925;-66
2021/12/15 13:40:35;;;;;;;;;;;;;;;5.98;76.70;100950.19;5107838;28;19955;-66
2021/12/15 13:43:05;;;;;;;;;;;;;;;6.00;76.55;100953.63;5116017;28;19924;-66
2021/12/15 13:45:35;;;;;;;;;;;;;;;6.08;76.97;100952.25;5116095;28;19971;-65
2021/12/15 13:48:04;;;;;;;;;;;;;;;6.16;77.58;100961.03;5116318;28;20278;-65
2021/12/15 13:50:34;;;;;;;;;;;;;;;6.17;77.00;100956.81;5115957;28;19977;-66
2021/12/15 13:53:03;;;;;;;;;;;;;;;6.02;77.40;100952.03;5115801;28;20027;-66
2021/12/15 13:55:33;;;;;;;;;;;;;;;5.92;77.51;100953.38;5115928;28;19976;-65
2021/12/15 13:58:15;;;;;;;;;;;;;;;6.03;78.00;100948.69;5115483;28;19924;-64
2021/12/15 14:00:47;;;;;;;;;;;;;;;6.08;77.29;100944.66;5114467;28;19930;-64
2021/12/15 14:03:25;;;;;;;;;;;;;;;6.03;77.38;100953.75;5115632;28;19966;-66
2021/12/15 14:05:58;;;;;;;;;;;;;;;5.89;77.71;100959.97;5116324;28;19924;-66
2021/12/15 14:08:29;;;;;;;;;;;;;;;5.92;77.38;100957.56;5116007;28;20022;-66
2021/12/15 14:11:04;;;;;;;;;;;;;;;6.02;77.47;100952.03;5115398;28;19923;-66
2021/12/15 14:13:44;;;;;;;;;;;;;;;6.10;77.50;100963.31;5115572;28;19988;-66
2021/12/15 14:16:15;;;;;;;;;;;;;;;6.00;77.07;100964.63;5115485;28;20010;-66
2021/12/15 14:18:47;;;;;;;;;;;;;;;6.03;76.75;100966.44;5115484;28;19924;-66
2021/12/15 14:21:19;;;;;;;;;;;;;;;5.91;77.19;100974.44;5113561;28;19930;-65
2021/12/15 14:23:49;;;;;;;;;;;;;;;5.79;77.58;100973.06;5115717;28;20270;-66
2021/12/15 14:26:36;;;;;;;;;;;;;;;5.64;77.31;100975.00;5115209;28;20006;-66
2021/12/15 14:29:07;;;;;;;;;;;;;;;5.73;77.58;100973.69;5115247;28;19949;-66
2021/12/15 14:31:38;;;;;;;;;;;;;;;5.75;77.44;100981.34;5114981;28;19934;-66
2021/12/15 14:34:13;;;;;;;;;;;;;;;5.68;77.28;100974.31;5114844;28;19947;-66
2021/12/15 14:36:46;;;;;;;;;;;;;;;5.45;77.79;100980.97;5115241;28;19928;-65
2021/12/15 14:39:19;;;;;;;;;;;;;;;5.41;77.86;100987.59;5115017;28;19928;-65